sensor_id;sensor_type;location;lat;lon;timestamp;P1;durP1;ratioP1;P2;durP2;ratioP2
41446;SDS011;27185;52.040;4.490;2023-05-23T00:01:27;27.88;;;9.93;;
41446;SDS011;27185;52.040;4.490;2023-05-23T00:07:04;24.13;;;11.18;;
41446;SDS011;27185;52.040;4.490;2023-05-23T00:09:49;22.48;;;10.75;;
41446;SDS011;27185;52.040;4.490;2023-05-23T00:12:35;22.13;;;9.23;;
41446;SDS011;27185;52.040;4.490;2023-05-23T00:15:26;15.82;;;8.20;;
41446;SDS011;27185;52.040;4.490;2023-05-23T00:18:11;14.90;;;7.00;;
41446;SDS011;27185;52.040;4.490;2023-05-23T00:20:57;15.25;;;6.68;;
41446;SDS011;27185;52.040;4.490;2023-05-23T00:23:43;10.50;;;6.03;;
41446;SDS011;27185;52.040;4.490;2023-05-23T00:26:28;12.20;;;6.75;;
41446;SDS011;27185;52.040;4.490;2023-05-23T00:29:14;15.05;;;7.50;;
41446;SDS011;27185;52.040;4.490;2023-05-23T00:32:01;19.83;;;8.13;;
41446;SDS011;27185;52.040;4.490;2023-05-23T00:34:47;18.00;;;8.23;;
41446;SDS011;27185;52.040;4.490;2023-05-23T00:37:32;20.90;;;8.73;;
41446;SDS011;27185;52.040;4.490;2023-05-23T00:40:18;21.83;;;8.18;;
41446;SDS011;27185;52.040;4.490;2023-05-23T00:43:04;20.05;;;8.48;;
41446;SDS011;27185;52.040;4.490;2023-05-23T00:45:50;27.00;;;8.57;;
41446;SDS011;27185;52.040;4.490;2023-05-23T00:48:35;22.80;;;8.27;;
41446;SDS011;27185;52.040;4.490;2023-05-23T00:51:22;22.52;;;7.53;;
41446;SDS011;27185;52.040;4.490;2023-05-23T00:54:09;21.47;;;9.07;;
41446;SDS011;27185;52.040;4.490;2023-05-23T00:56:56;20.60;;;7.38;;
41446;SDS011;27185;52.040;4.490;2023-05-23T00:59:42;21.08;;;8.35;;
41446;SDS011;27185;52.040;4.490;2023-05-23T01:02:30;15.55;;;7.47;;
41446;SDS011;27185;52.040;4.490;2023-05-23T01:05:17;26.13;;;8.45;;
41446;SDS011;27185;52.040;4.490;2023-05-23T01:08:06;22.55;;;8.07;;
41446;SDS011;27185;52.040;4.490;2023-05-23T01:10:52;21.90;;;7.10;;
41446;SDS011;27185;52.040;4.490;2023-05-23T01:13:42;21.33;;;8.23;;
41446;SDS011;27185;52.040;4.490;2023-05-23T01:22:36;21.10;;;6.47;;
41446;SDS011;27185;52.040;4.490;2023-05-23T01:28:36;22.80;;;6.85;;
41446;SDS011;27185;52.040;4.490;2023-05-23T01:31:24;18.40;;;7.00;;
41446;SDS011;27185;52.040;4.490;2023-05-23T01:34:13;19.95;;;8.00;;
41446;SDS011;27185;52.040;4.490;2023-05-23T01:36:58;20.35;;;6.82;;
41446;SDS011;27185;52.040;4.490;2023-05-23T01:39:44;15.75;;;6.07;;
41446;SDS011;27185;52.040;4.490;2023-05-23T01:42:30;17.30;;;6.53;;
41446;SDS011;27185;52.040;4.490;2023-05-23T01:45:16;21.42;;;7.32;;
41446;SDS011;27185;52.040;4.490;2023-05-23T01:48:02;19.08;;;6.90;;
41446;SDS011;27185;52.040;4.490;2023-05-23T01:50:48;19.17;;;6.53;;
41446;SDS011;27185;52.040;4.490;2023-05-23T01:53:34;19.60;;;6.63;;
41446;SDS011;27185;52.040;4.490;2023-05-23T01:56:21;16.67;;;6.35;;
41446;SDS011;27185;52.040;4.490;2023-05-23T01:59:08;13.70;;;6.15;;
41446;SDS011;27185;52.040;4.490;2023-05-23T02:01:53;18.30;;;6.43;;
41446;SDS011;27185;52.040;4.490;2023-05-23T02:04:39;20.90;;;5.65;;
41446;SDS011;27185;52.040;4.490;2023-05-23T02:07:24;23.77;;;6.82;;
41446;SDS011;27185;52.040;4.490;2023-05-23T02:10:10;25.55;;;6.40;;
41446;SDS011;27185;52.040;4.490;2023-05-23T02:12:56;18.90;;;7.00;;
41446;SDS011;27185;52.040;4.490;2023-05-23T02:15:41;18.98;;;5.90;;
41446;SDS011;27185;52.040;4.490;2023-05-23T02:18:27;21.67;;;6.32;;
41446;SDS011;27185;52.040;4.490;2023-05-23T02:21:13;24.00;;;6.97;;
41446;SDS011;27185;52.040;4.490;2023-05-23T02:23:59;23.77;;;6.65;;
41446;SDS011;27185;52.040;4.490;2023-05-23T02:26:44;21.40;;;6.75;;
41446;SDS011;27185;52.040;4.490;2023-05-23T02:29:30;21.30;;;6.47;;
41446;SDS011;27185;52.040;4.490;2023-05-23T02:32:16;22.42;;;6.72;;
41446;SDS011;27185;52.040;4.490;2023-05-23T02:35:02;18.10;;;6.32;;
41446;SDS011;27185;52.040;4.490;2023-05-23T02:37:48;25.15;;;7.20;;
41446;SDS011;27185;52.040;4.490;2023-05-23T02:40:33;18.58;;;5.88;;
41446;SDS011;27185;52.040;4.490;2023-05-23T02:43:19;18.63;;;5.80;;
41446;SDS011;27185;52.040;4.490;2023-05-23T02:46:05;21.67;;;6.15;;
41446;SDS011;27185;52.040;4.490;2023-05-23T02:48:50;24.38;;;6.00;;
41446;SDS011;27185;52.040;4.490;2023-05-23T02:51:36;17.85;;;5.15;;
41446;SDS011;27185;52.040;4.490;2023-05-23T02:54:21;22.48;;;5.55;;
41446;SDS011;27185;52.040;4.490;2023-05-23T02:57:07;21.52;;;5.95;;
41446;SDS011;27185;52.040;4.490;2023-05-23T02:59:53;19.83;;;5.57;;
41446;SDS011;27185;52.040;4.490;2023-05-23T03:02:38;15.68;;;4.55;;
41446;SDS011;27185;52.040;4.490;2023-05-23T03:05:25;20.02;;;5.28;;
41446;SDS011;27185;52.040;4.490;2023-05-23T03:08:10;17.40;;;4.75;;
41446;SDS011;27185;52.040;4.490;2023-05-23T03:10:56;21.20;;;4.60;;
41446;SDS011;27185;52.040;4.490;2023-05-23T03:13:41;18.35;;;4.47;;
41446;SDS011;27185;52.040;4.490;2023-05-23T03:16:27;17.20;;;4.78;;
41446;SDS011;27185;52.040;4.490;2023-05-23T03:19:12;17.63;;;4.45;;
41446;SDS011;27185;52.040;4.490;2023-05-23T03:21:58;15.32;;;4.10;;
41446;SDS011;27185;52.040;4.490;2023-05-23T03:24:44;16.00;;;4.25;;
41446;SDS011;27185;52.040;4.490;2023-05-23T03:27:29;13.35;;;3.30;;
41446;SDS011;27185;52.040;4.490;2023-05-23T03:30:15;12.52;;;3.58;;
41446;SDS011;27185;52.040;4.490;2023-05-23T03:33:00;18.30;;;4.22;;
41446;SDS011;27185;52.040;4.490;2023-05-23T03:35:47;14.88;;;3.72;;
41446;SDS011;27185;52.040;4.490;2023-05-23T03:38:32;12.07;;;2.95;;
41446;SDS011;27185;52.040;4.490;2023-05-23T03:41:18;13.50;;;3.83;;
41446;SDS011;27185;52.040;4.490;2023-05-23T03:44:03;11.75;;;4.10;;
41446;SDS011;27185;52.040;4.490;2023-05-23T03:46:49;16.73;;;4.07;;
41446;SDS011;27185;52.040;4.490;2023-05-23T03:49:35;13.35;;;3.65;;
41446;SDS011;27185;52.040;4.490;2023-05-23T03:52:21;14.57;;;3.47;;
41446;SDS011;27185;52.040;4.490;2023-05-23T03:55:07;14.73;;;3.33;;
41446;SDS011;27185;52.040;4.490;2023-05-23T03:57:53;18.83;;;4.30;;
41446;SDS011;27185;52.040;4.490;2023-05-23T04:00:39;9.75;;;3.63;;
41446;SDS011;27185;52.040;4.490;2023-05-23T04:03:25;12.00;;;3.65;;
41446;SDS011;27185;52.040;4.490;2023-05-23T04:06:11;15.07;;;3.15;;
41446;SDS011;27185;52.040;4.490;2023-05-23T04:08:56;13.93;;;3.70;;
41446;SDS011;27185;52.040;4.490;2023-05-23T04:11:42;12.18;;;4.13;;
41446;SDS011;27185;52.040;4.490;2023-05-23T04:14:28;14.02;;;4.88;;
41446;SDS011;27185;52.040;4.490;2023-05-23T04:17:13;15.20;;;4.43;;
41446;SDS011;27185;52.040;4.490;2023-05-23T04:19:59;13.73;;;4.78;;
41446;SDS011;27185;52.040;4.490;2023-05-23T04:22:44;14.38;;;5.03;;
41446;SDS011;27185;52.040;4.490;2023-05-23T04:25:30;19.08;;;6.22;;
41446;SDS011;27185;52.040;4.490;2023-05-23T04:28:16;15.15;;;4.75;;
41446;SDS011;27185;52.040;4.490;2023-05-23T04:31:01;14.38;;;5.00;;
41446;SDS011;27185;52.040;4.490;2023-05-23T04:33:47;15.40;;;5.20;;
41446;SDS011;27185;52.040;4.490;2023-05-23T04:36:33;17.15;;;5.40;;
41446;SDS011;27185;52.040;4.490;2023-05-23T04:39:21;19.63;;;5.93;;
41446;SDS011;27185;52.040;4.490;2023-05-23T04:42:07;15.93;;;6.25;;
41446;SDS011;27185;52.040;4.490;2023-05-23T04:44:53;20.42;;;6.28;;
41446;SDS011;27185;52.040;4.490;2023-05-23T04:47:41;20.65;;;6.65;;
41446;SDS011;27185;52.040;4.490;2023-05-23T04:50:28;15.48;;;5.45;;
41446;SDS011;27185;52.040;4.490;2023-05-23T04:53:17;20.55;;;6.38;;
41446;SDS011;27185;52.040;4.490;2023-05-23T04:56:02;16.50;;;6.30;;
41446;SDS011;27185;52.040;4.490;2023-05-23T04:58:48;17.33;;;6.60;;
41446;SDS011;27185;52.040;4.490;2023-05-23T05:01:34;20.35;;;6.25;;
41446;SDS011;27185;52.040;4.490;2023-05-23T05:04:19;20.35;;;6.38;;
41446;SDS011;27185;52.040;4.490;2023-05-23T05:07:07;16.10;;;6.15;;
41446;SDS011;27185;52.040;4.490;2023-05-23T05:09:52;21.67;;;7.13;;
41446;SDS011;27185;52.040;4.490;2023-05-23T05:12:38;15.88;;;6.32;;
41446;SDS011;27185;52.040;4.490;2023-05-23T05:15:23;16.65;;;6.22;;
41446;SDS011;27185;52.040;4.490;2023-05-23T05:18:09;22.35;;;7.10;;
41446;SDS011;27185;52.040;4.490;2023-05-23T05:20:56;14.57;;;5.95;;
41446;SDS011;27185;52.040;4.490;2023-05-23T05:23:42;20.27;;;5.80;;
41446;SDS011;27185;52.040;4.490;2023-05-23T05:26:27;16.33;;;6.10;;
41446;SDS011;27185;52.040;4.490;2023-05-23T05:29:13;15.07;;;4.93;;
41446;SDS011;27185;52.040;4.490;2023-05-23T05:31:59;14.30;;;5.18;;
41446;SDS011;27185;52.040;4.490;2023-05-23T05:34:45;20.17;;;6.38;;
41446;SDS011;27185;52.040;4.490;2023-05-23T05:37:31;15.82;;;5.97;;
41446;SDS011;27185;52.040;4.490;2023-05-23T05:40:16;11.43;;;5.20;;
41446;SDS011;27185;52.040;4.490;2023-05-23T05:43:02;12.43;;;4.80;;
41446;SDS011;27185;52.040;4.490;2023-05-23T05:45:48;10.43;;;4.75;;
41446;SDS011;27185;52.040;4.490;2023-05-23T05:48:33;13.30;;;4.57;;
41446;SDS011;27185;52.040;4.490;2023-05-23T05:51:19;13.52;;;4.43;;
41446;SDS011;27185;52.040;4.490;2023-05-23T05:54:05;15.85;;;4.53;;
41446;SDS011;27185;52.040;4.490;2023-05-23T05:56:51;16.77;;;4.60;;
41446;SDS011;27185;52.040;4.490;2023-05-23T05:59:37;9.80;;;3.55;;
41446;SDS011;27185;52.040;4.490;2023-05-23T06:02:23;10.35;;;3.65;;
41446;SDS011;27185;52.040;4.490;2023-05-23T06:05:09;11.15;;;3.47;;
41446;SDS011;27185;52.040;4.490;2023-05-23T06:08:00;14.35;;;4.30;;
41446;SDS011;27185;52.040;4.490;2023-05-23T06:10:46;13.68;;;3.75;;
41446;SDS011;27185;52.040;4.490;2023-05-23T06:13:31;9.15;;;2.97;;
41446;SDS011;27185;52.040;4.490;2023-05-23T06:16:17;9.70;;;3.15;;
41446;SDS011;27185;52.040;4.490;2023-05-23T06:19:02;8.55;;;2.78;;
41446;SDS011;27185;52.040;4.490;2023-05-23T06:21:49;6.95;;;2.45;;
41446;SDS011;27185;52.040;4.490;2023-05-23T06:24:34;7.75;;;2.25;;
41446;SDS011;27185;52.040;4.490;2023-05-23T06:27:20;6.95;;;1.77;;
41446;SDS011;27185;52.040;4.490;2023-05-23T06:30:06;7.60;;;1.90;;
41446;SDS011;27185;52.040;4.490;2023-05-23T06:32:52;10.98;;;1.60;;
41446;SDS011;27185;52.040;4.490;2023-05-23T06:35:37;11.02;;;2.05;;
41446;SDS011;27185;52.040;4.490;2023-05-23T06:38:24;8.52;;;1.85;;
41446;SDS011;27185;52.040;4.490;2023-05-23T06:41:11;9.10;;;2.08;;
41446;SDS011;27185;52.040;4.490;2023-05-23T06:43:56;11.98;;;2.10;;
41446;SDS011;27185;52.040;4.490;2023-05-23T06:46:43;9.02;;;1.13;;
41446;SDS011;27185;52.040;4.490;2023-05-23T06:49:30;12.45;;;2.20;;
41446;SDS011;27185;52.040;4.490;2023-05-23T06:52:15;7.68;;;2.03;;
41446;SDS011;27185;52.040;4.490;2023-05-23T06:55:01;12.95;;;2.05;;
41446;SDS011;27185;52.040;4.490;2023-05-23T06:57:46;9.57;;;1.67;;
41446;SDS011;27185;52.040;4.490;2023-05-23T07:00:35;12.10;;;2.00;;
41446;SDS011;27185;52.040;4.490;2023-05-23T07:03:22;15.25;;;2.47;;
41446;SDS011;27185;52.040;4.490;2023-05-23T07:06:07;13.13;;;2.55;;
41446;SDS011;27185;52.040;4.490;2023-05-23T07:08:53;13.23;;;1.70;;
41446;SDS011;27185;52.040;4.490;2023-05-23T07:11:38;14.98;;;2.15;;
41446;SDS011;27185;52.040;4.490;2023-05-23T07:14:25;14.15;;;2.72;;
41446;SDS011;27185;52.040;4.490;2023-05-23T07:17:10;14.20;;;2.55;;
41446;SDS011;27185;52.040;4.490;2023-05-23T07:19:56;13.65;;;2.15;;
41446;SDS011;27185;52.040;4.490;2023-05-23T07:22:41;12.50;;;2.17;;
41446;SDS011;27185;52.040;4.490;2023-05-23T07:25:27;12.63;;;2.28;;
41446;SDS011;27185;52.040;4.490;2023-05-23T07:28:12;12.77;;;2.45;;
41446;SDS011;27185;52.040;4.490;2023-05-23T07:30:58;13.60;;;2.15;;
41446;SDS011;27185;52.040;4.490;2023-05-23T07:33:44;12.70;;;2.45;;
41446;SDS011;27185;52.040;4.490;2023-05-23T07:36:29;12.70;;;2.42;;
41446;SDS011;27185;52.040;4.490;2023-05-23T07:39:18;15.68;;;2.25;;
41446;SDS011;27185;52.040;4.490;2023-05-23T07:42:06;15.93;;;2.38;;
41446;SDS011;27185;52.040;4.490;2023-05-23T07:44:51;16.85;;;2.67;;
41446;SDS011;27185;52.040;4.490;2023-05-23T07:47:37;16.58;;;1.95;;
41446;SDS011;27185;52.040;4.490;2023-05-23T07:50:22;16.48;;;2.97;;
41446;SDS011;27185;52.040;4.490;2023-05-23T07:53:10;16.63;;;2.58;;
41446;SDS011;27185;52.040;4.490;2023-05-23T07:55:55;19.10;;;2.95;;
41446;SDS011;27185;52.040;4.490;2023-05-23T07:58:41;16.33;;;3.67;;
41446;SDS011;27185;52.040;4.490;2023-05-23T08:01:26;11.57;;;2.60;;
41446;SDS011;27185;52.040;4.490;2023-05-23T08:04:12;9.73;;;2.20;;
41446;SDS011;27185;52.040;4.490;2023-05-23T08:06:58;15.77;;;2.85;;
41446;SDS011;27185;52.040;4.490;2023-05-23T08:09:45;14.75;;;2.83;;
41446;SDS011;27185;52.040;4.490;2023-05-23T08:12:30;11.88;;;2.60;;
41446;SDS011;27185;52.040;4.490;2023-05-23T08:15:16;14.57;;;2.53;;
41446;SDS011;27185;52.040;4.490;2023-05-23T08:18:02;13.75;;;2.63;;
41446;SDS011;27185;52.040;4.490;2023-05-23T08:20:48;22.60;;;3.25;;
41446;SDS011;27185;52.040;4.490;2023-05-23T08:23:34;17.35;;;2.97;;
41446;SDS011;27185;52.040;4.490;2023-05-23T08:26:20;16.23;;;2.83;;
41446;SDS011;27185;52.040;4.490;2023-05-23T08:29:06;13.63;;;2.78;;
41446;SDS011;27185;52.040;4.490;2023-05-23T08:31:54;12.85;;;2.47;;
41446;SDS011;27185;52.040;4.490;2023-05-23T08:34:39;14.13;;;2.45;;
41446;SDS011;27185;52.040;4.490;2023-05-23T08:37:26;15.50;;;3.05;;
41446;SDS011;27185;52.040;4.490;2023-05-23T08:40:17;15.70;;;2.70;;
41446;SDS011;27185;52.040;4.490;2023-05-23T08:43:05;17.90;;;3.20;;
41446;SDS011;27185;52.040;4.490;2023-05-23T08:45:50;14.75;;;2.53;;
41446;SDS011;27185;52.040;4.490;2023-05-23T08:48:37;14.52;;;3.22;;
41446;SDS011;27185;52.040;4.490;2023-05-23T08:51:26;19.67;;;2.88;;
41446;SDS011;27185;52.040;4.490;2023-05-23T08:54:12;16.40;;;2.83;;
41446;SDS011;27185;52.040;4.490;2023-05-23T08:56:58;24.30;;;2.78;;
41446;SDS011;27185;52.040;4.490;2023-05-23T08:59:44;10.48;;;2.35;;
41446;SDS011;27185;52.040;4.490;2023-05-23T09:02:31;10.98;;;2.47;;
41446;SDS011;27185;52.040;4.490;2023-05-23T09:05:17;14.70;;;2.35;;
41446;SDS011;27185;52.040;4.490;2023-05-23T09:08:03;12.48;;;2.55;;
41446;SDS011;27185;52.040;4.490;2023-05-23T09:10:48;10.32;;;2.63;;
41446;SDS011;27185;52.040;4.490;2023-05-23T09:13:35;15.02;;;2.55;;
41446;SDS011;27185;52.040;4.490;2023-05-23T09:16:20;15.95;;;2.92;;
41446;SDS011;27185;52.040;4.490;2023-05-23T09:19:10;13.15;;;2.50;;
41446;SDS011;27185;52.040;4.490;2023-05-23T09:21:56;16.00;;;2.22;;
41446;SDS011;27185;52.040;4.490;2023-05-23T09:24:42;10.77;;;2.05;;
41446;SDS011;27185;52.040;4.490;2023-05-23T09:27:28;12.68;;;2.33;;
41446;SDS011;27185;52.040;4.490;2023-05-23T09:30:15;13.18;;;2.70;;
41446;SDS011;27185;52.040;4.490;2023-05-23T09:33:02;19.60;;;2.95;;
41446;SDS011;27185;52.040;4.490;2023-05-23T09:35:48;11.98;;;2.92;;
41446;SDS011;27185;52.040;4.490;2023-05-23T09:38:40;16.20;;;3.28;;
41446;SDS011;27185;52.040;4.490;2023-05-23T09:41:28;14.60;;;2.75;;
41446;SDS011;27185;52.040;4.490;2023-05-23T09:44:21;20.42;;;2.38;;
41446;SDS011;27185;52.040;4.490;2023-05-23T09:47:07;7.90;;;1.88;;
41446;SDS011;27185;52.040;4.490;2023-05-23T09:49:52;12.95;;;2.45;;
41446;SDS011;27185;52.040;4.490;2023-05-23T09:52:38;11.70;;;2.28;;
41446;SDS011;27185;52.040;4.490;2023-05-23T09:55:24;12.30;;;2.42;;
41446;SDS011;27185;52.040;4.490;2023-05-23T09:58:10;16.25;;;2.35;;
41446;SDS011;27185;52.040;4.490;2023-05-23T10:00:57;11.18;;;1.88;;
41446;SDS011;27185;52.040;4.490;2023-05-23T10:03:50;15.25;;;2.60;;
41446;SDS011;27185;52.040;4.490;2023-05-23T10:06:40;16.20;;;2.25;;
41446;SDS011;27185;52.040;4.490;2023-05-23T10:09:30;13.75;;;2.15;;
41446;SDS011;27185;52.040;4.490;2023-05-23T10:12:41;11.85;;;1.92;;
41446;SDS011;27185;52.040;4.490;2023-05-23T10:15:31;12.98;;;1.73;;
41446;SDS011;27185;52.040;4.490;2023-05-23T10:18:24;9.25;;;1.75;;
41446;SDS011;27185;52.040;4.490;2023-05-23T10:21:14;10.10;;;1.45;;
41446;SDS011;27185;52.040;4.490;2023-05-23T10:24:04;9.93;;;1.85;;
41446;SDS011;27185;52.040;4.490;2023-05-23T10:26:52;12.20;;;2.05;;
41446;SDS011;27185;52.040;4.490;2023-05-23T10:29:39;11.43;;;1.60;;
41446;SDS011;27185;52.040;4.490;2023-05-23T10:32:26;11.43;;;1.38;;
41446;SDS011;27185;52.040;4.490;2023-05-23T10:41:11;12.10;;;2.13;;
41446;SDS011;27185;52.040;4.490;2023-05-23T10:44:07;14.95;;;2.83;;
41446;SDS011;27185;52.040;4.490;2023-05-23T10:47:07;14.13;;;2.65;;
41446;SDS011;27185;52.040;4.490;2023-05-23T10:49:53;11.95;;;2.20;;
41446;SDS011;27185;52.040;4.490;2023-05-23T10:52:40;14.38;;;1.95;;
41446;SDS011;27185;52.040;4.490;2023-05-23T10:55:29;13.25;;;2.38;;
41446;SDS011;27185;52.040;4.490;2023-05-23T10:58:19;15.05;;;2.40;;
41446;SDS011;27185;52.040;4.490;2023-05-23T11:01:12;14.02;;;2.28;;
41446;SDS011;27185;52.040;4.490;2023-05-23T11:04:04;12.98;;;2.15;;
41446;SDS011;27185;52.040;4.490;2023-05-23T11:06:51;11.60;;;2.53;;
41446;SDS011;27185;52.040;4.490;2023-05-23T11:10:01;10.23;;;2.22;;
41446;SDS011;27185;52.040;4.490;2023-05-23T11:13:04;12.75;;;2.10;;
41446;SDS011;27185;52.040;4.490;2023-05-23T11:15:51;10.15;;;1.70;;
41446;SDS011;27185;52.040;4.490;2023-05-23T11:18:37;14.50;;;1.73;;
41446;SDS011;27185;52.040;4.490;2023-05-23T11:21:23;9.80;;;2.10;;
41446;SDS011;27185;52.040;4.490;2023-05-23T11:24:08;11.30;;;1.73;;
41446;SDS011;27185;52.040;4.490;2023-05-23T11:26:56;12.10;;;2.40;;
41446;SDS011;27185;52.040;4.490;2023-05-23T11:29:55;9.82;;;1.80;;
41446;SDS011;27185;52.040;4.490;2023-05-23T11:32:51;7.50;;;1.83;;
41446;SDS011;27185;52.040;4.490;2023-05-23T11:35:40;9.35;;;2.30;;
41446;SDS011;27185;52.040;4.490;2023-05-23T11:38:26;11.75;;;1.70;;
41446;SDS011;27185;52.040;4.490;2023-05-23T11:41:12;11.25;;;1.75;;
41446;SDS011;27185;52.040;4.490;2023-05-23T11:43:57;12.48;;;2.13;;
41446;SDS011;27185;52.040;4.490;2023-05-23T11:49:46;11.50;;;2.08;;
41446;SDS011;27185;52.040;4.490;2023-05-23T11:52:31;9.57;;;1.90;;
41446;SDS011;27185;52.040;4.490;2023-05-23T11:55:18;10.35;;;2.00;;
41446;SDS011;27185;52.040;4.490;2023-05-23T11:58:05;16.70;;;1.75;;
41446;SDS011;27185;52.040;4.490;2023-05-23T12:00:50;13.43;;;1.85;;
41446;SDS011;27185;52.040;4.490;2023-05-23T12:03:45;10.00;;;1.95;;
41446;SDS011;27185;52.040;4.490;2023-05-23T12:06:35;10.95;;;2.20;;
41446;SDS011;27185;52.040;4.490;2023-05-23T12:09:25;6.90;;;1.58;;
41446;SDS011;27185;52.040;4.490;2023-05-23T12:12:11;11.10;;;1.75;;
41446;SDS011;27185;52.040;4.490;2023-05-23T12:14:57;12.30;;;2.00;;
41446;SDS011;27185;52.040;4.490;2023-05-23T12:17:43;12.20;;;2.20;;
41446;SDS011;27185;52.040;4.490;2023-05-23T12:20:33;11.48;;;2.03;;
41446;SDS011;27185;52.040;4.490;2023-05-23T12:23:20;9.02;;;1.80;;
41446;SDS011;27185;52.040;4.490;2023-05-23T12:26:06;7.07;;;1.63;;
41446;SDS011;27185;52.040;4.490;2023-05-23T12:28:54;12.40;;;1.13;;
41446;SDS011;27185;52.040;4.490;2023-05-23T12:31:40;11.20;;;1.60;;
41446;SDS011;27185;52.040;4.490;2023-05-23T12:34:26;10.23;;;1.80;;
41446;SDS011;27185;52.040;4.490;2023-05-23T12:37:12;7.40;;;1.67;;
41446;SDS011;27185;52.040;4.490;2023-05-23T12:40:08;10.55;;;1.48;;
41446;SDS011;27185;52.040;4.490;2023-05-23T12:43:00;11.40;;;1.98;;
41446;SDS011;27185;52.040;4.490;2023-05-23T12:45:46;11.18;;;1.52;;
41446;SDS011;27185;52.040;4.490;2023-05-23T12:48:31;10.40;;;1.63;;
41446;SDS011;27185;52.040;4.490;2023-05-23T12:51:17;8.30;;;1.35;;
41446;SDS011;27185;52.040;4.490;2023-05-23T12:54:03;15.52;;;1.98;;
41446;SDS011;27185;52.040;4.490;2023-05-23T12:56:49;9.25;;;1.85;;
41446;SDS011;27185;52.040;4.490;2023-05-23T12:59:35;14.32;;;1.63;;
41446;SDS011;27185;52.040;4.490;2023-05-23T13:02:20;12.05;;;1.70;;
41446;SDS011;27185;52.040;4.490;2023-05-23T13:05:07;7.65;;;1.65;;
41446;SDS011;27185;52.040;4.490;2023-05-23T13:07:53;7.32;;;1.20;;
41446;SDS011;27185;52.040;4.490;2023-05-23T13:10:39;12.75;;;2.15;;
41446;SDS011;27185;52.040;4.490;2023-05-23T13:13:25;8.93;;;1.48;;
41446;SDS011;27185;52.040;4.490;2023-05-23T13:16:10;11.40;;;1.40;;
41446;SDS011;27185;52.040;4.490;2023-05-23T13:18:56;6.38;;;1.20;;
41446;SDS011;27185;52.040;4.490;2023-05-23T13:21:42;9.98;;;1.63;;
41446;SDS011;27185;52.040;4.490;2023-05-23T13:24:27;9.05;;;1.70;;
41446;SDS011;27185;52.040;4.490;2023-05-23T13:27:13;11.93;;;2.00;;
41446;SDS011;27185;52.040;4.490;2023-05-23T13:29:58;10.18;;;1.67;;
41446;SDS011;27185;52.040;4.490;2023-05-23T13:32:45;9.75;;;1.73;;
41446;SDS011;27185;52.040;4.490;2023-05-23T13:35:31;5.25;;;1.08;;
41446;SDS011;27185;52.040;4.490;2023-05-23T13:38:17;7.78;;;1.10;;
41446;SDS011;27185;52.040;4.490;2023-05-23T13:41:03;8.18;;;1.15;;
41446;SDS011;27185;52.040;4.490;2023-05-23T13:43:48;10.23;;;1.15;;
41446;SDS011;27185;52.040;4.490;2023-05-23T13:46:34;9.02;;;1.33;;
41446;SDS011;27185;52.040;4.490;2023-05-23T13:49:20;8.63;;;1.42;;
41446;SDS011;27185;52.040;4.490;2023-05-23T13:52:05;9.43;;;1.50;;
41446;SDS011;27185;52.040;4.490;2023-05-23T13:54:51;10.52;;;1.50;;
41446;SDS011;27185;52.040;4.490;2023-05-23T13:57:37;9.43;;;1.42;;
41446;SDS011;27185;52.040;4.490;2023-05-23T14:00:23;10.40;;;1.42;;
41446;SDS011;27185;52.040;4.490;2023-05-23T14:03:08;10.50;;;2.05;;
41446;SDS011;27185;52.040;4.490;2023-05-23T14:05:54;10.55;;;1.52;;
41446;SDS011;27185;52.040;4.490;2023-05-23T14:08:39;8.15;;;1.70;;
41446;SDS011;27185;52.040;4.490;2023-05-23T14:11:25;5.40;;;1.33;;
41446;SDS011;27185;52.040;4.490;2023-05-23T14:14:12;6.22;;;1.38;;
41446;SDS011;27185;52.040;4.490;2023-05-23T14:16:57;7.28;;;1.48;;
41446;SDS011;27185;52.040;4.490;2023-05-23T14:19:43;8.82;;;1.30;;
41446;SDS011;27185;52.040;4.490;2023-05-23T14:22:29;5.70;;;1.23;;
41446;SDS011;27185;52.040;4.490;2023-05-23T14:25:15;8.35;;;1.13;;
41446;SDS011;27185;52.040;4.490;2023-05-23T14:28:01;7.93;;;1.27;;
41446;SDS011;27185;52.040;4.490;2023-05-23T14:30:47;7.25;;;1.30;;
41446;SDS011;27185;52.040;4.490;2023-05-23T14:33:33;10.15;;;1.73;;
41446;SDS011;27185;52.040;4.490;2023-05-23T14:36:18;8.48;;;1.20;;
41446;SDS011;27185;52.040;4.490;2023-05-23T14:39:04;8.02;;;1.33;;
41446;SDS011;27185;52.040;4.490;2023-05-23T14:41:51;5.43;;;1.08;;
41446;SDS011;27185;52.040;4.490;2023-05-23T14:44:37;7.45;;;1.60;;
41446;SDS011;27185;52.040;4.490;2023-05-23T14:47:23;11.63;;;2.20;;
41446;SDS011;27185;52.040;4.490;2023-05-23T14:50:08;6.70;;;1.50;;
41446;SDS011;27185;52.040;4.490;2023-05-23T14:52:54;9.13;;;1.75;;
41446;SDS011;27185;52.040;4.490;2023-05-23T14:55:40;9.40;;;1.80;;
41446;SDS011;27185;52.040;4.490;2023-05-23T14:58:26;6.20;;;1.20;;
41446;SDS011;27185;52.040;4.490;2023-05-23T15:01:11;12.18;;;1.95;;
41446;SDS011;27185;52.040;4.490;2023-05-23T15:03:57;7.85;;;1.70;;
41446;SDS011;27185;52.040;4.490;2023-05-23T15:06:43;9.48;;;1.45;;
41446;SDS011;27185;52.040;4.490;2023-05-23T15:09:29;7.55;;;1.63;;
41446;SDS011;27185;52.040;4.490;2023-05-23T15:12:14;7.45;;;1.15;;
41446;SDS011;27185;52.040;4.490;2023-05-23T15:15:00;8.23;;;1.42;;
41446;SDS011;27185;52.040;4.490;2023-05-23T15:17:49;10.10;;;1.60;;
41446;SDS011;27185;52.040;4.490;2023-05-23T15:20:35;5.65;;;1.20;;
41446;SDS011;27185;52.040;4.490;2023-05-23T15:23:21;9.35;;;1.60;;
41446;SDS011;27185;52.040;4.490;2023-05-23T15:26:06;8.13;;;1.40;;
41446;SDS011;27185;52.040;4.490;2023-05-23T15:28:52;11.75;;;1.80;;
41446;SDS011;27185;52.040;4.490;2023-05-23T15:31:37;6.30;;;1.00;;
41446;SDS011;27185;52.040;4.490;2023-05-23T15:34:23;8.05;;;1.42;;
41446;SDS011;27185;52.040;4.490;2023-05-23T15:37:08;8.32;;;1.52;;
41446;SDS011;27185;52.040;4.490;2023-05-23T15:39:54;7.80;;;1.27;;
41446;SDS011;27185;52.040;4.490;2023-05-23T15:42:40;6.28;;;1.02;;
41446;SDS011;27185;52.040;4.490;2023-05-23T15:45:25;9.23;;;1.30;;
41446;SDS011;27185;52.040;4.490;2023-05-23T15:48:11;9.07;;;1.58;;
41446;SDS011;27185;52.040;4.490;2023-05-23T15:50:56;10.18;;;1.20;;
41446;SDS011;27185;52.040;4.490;2023-05-23T15:53:42;9.02;;;1.55;;
41446;SDS011;27185;52.040;4.490;2023-05-23T15:56:28;6.18;;;1.20;;
41446;SDS011;27185;52.040;4.490;2023-05-23T15:59:13;10.15;;;1.20;;
41446;SDS011;27185;52.040;4.490;2023-05-23T16:01:59;5.70;;;1.17;;
41446;SDS011;27185;52.040;4.490;2023-05-23T16:04:49;10.88;;;1.70;;
41446;SDS011;27185;52.040;4.490;2023-05-23T16:07:34;8.18;;;1.60;;
41446;SDS011;27185;52.040;4.490;2023-05-23T16:10:20;7.20;;;1.52;;
41446;SDS011;27185;52.040;4.490;2023-05-23T16:13:05;6.88;;;0.93;;
41446;SDS011;27185;52.040;4.490;2023-05-23T16:15:52;10.40;;;1.55;;
41446;SDS011;27185;52.040;4.490;2023-05-23T16:18:38;6.60;;;1.30;;
41446;SDS011;27185;52.040;4.490;2023-05-23T16:21:24;8.70;;;1.33;;
41446;SDS011;27185;52.040;4.490;2023-05-23T16:24:09;10.43;;;1.70;;
41446;SDS011;27185;52.040;4.490;2023-05-23T16:26:58;4.40;;;0.90;;
41446;SDS011;27185;52.040;4.490;2023-05-23T16:29:44;7.05;;;1.35;;
41446;SDS011;27185;52.040;4.490;2023-05-23T16:32:29;14.10;;;1.75;;
41446;SDS011;27185;52.040;4.490;2023-05-23T16:35:15;13.27;;;1.65;;
41446;SDS011;27185;52.040;4.490;2023-05-23T16:38:00;11.25;;;1.67;;
41446;SDS011;27185;52.040;4.490;2023-05-23T16:40:46;5.05;;;1.10;;
41446;SDS011;27185;52.040;4.490;2023-05-23T16:43:32;12.65;;;1.33;;
41446;SDS011;27185;52.040;4.490;2023-05-23T16:46:18;8.13;;;1.10;;
41446;SDS011;27185;52.040;4.490;2023-05-23T16:49:06;8.52;;;1.30;;
41446;SDS011;27185;52.040;4.490;2023-05-23T16:51:51;7.78;;;1.30;;
41446;SDS011;27185;52.040;4.490;2023-05-23T16:54:37;4.82;;;0.98;;